PTAO2: Poteau River, Poteau, OK

                                SHEF ID:       PTAO2     Poteau River at Poteau, OK
STATION TYPE:
Regulating: Stage = 20.00, Flow = 7395

PRECIP STAGE RIV-FLOW VOLTAGE BAT-LOAD
in ft cfs volt volt
Ccp-Rev Ccp-Rev Ccp-Rev Ccp-Rev Ccp-Rev
(America/Chicago)
07/04 00:00 0.00 16.95 5710 12.87 12.27
07/04 01:00 0.00 16.94 5706 12.86 12.31
07/04 02:00 0.00 16.95 5710 12.84 12.23
07/04 03:00 0.00 16.94 5706 12.82 12.24
07/04 04:00 0.00 16.94 5706 12.80 12.21
07/04 05:00 0.00 16.93 5702 12.80 12.19
07/04 06:00 0.00 16.90 5690 12.80 12.23
07/04 07:00 0.00 16.92 5698 12.93 12.24
07/04 08:00 0.00 16.89 5686 13.87 12.90
07/04 09:00 0.00 16.88 5681 13.68 12.80
07/04 10:00 0.00 16.90 5690 13.17 12.60
07/04 11:00 0.00 16.88 5681 13.16 12.51
07/04 12:00 0.00 16.89 5686 13.16 12.44
07/04 13:00 0.00 16.87 5677 13.22 12.48
07/04 14:00 0.00 16.86 5673 13.17 12.50
07/04 15:00 0.00 16.86 5673 13.13 12.46
07/04 16:00 0.00 16.85 5669 13.19 12.49
07/04 17:00 0.00 16.82 5657 13.18 12.44
07/04 18:00 0.00 16.82 5657 13.19 12.45
07/04 19:00 0.00 16.81 5653 13.23 12.45
07/04 20:00 0.00 16.80 5649 13.19 12.47
07/04 21:00 0.00 16.80 5649 12.97 12.40
07/04 22:00 0.00 16.81 5653 12.92 12.29
07/04 23:00 0.00 16.79 5645 12.90 12.27
Data processed at Sat 05Jul2025 04:48 GMT

Parsing this webpage?

Checkout our new Data API! CWMSDataAPI (CDA)

Timeseries IDs (TSIDs)

TSIDs used from left to right in the data table
POTE.Precip-Inc.Total.1Hour.1Hour.Ccp-Rev
POTE.Stage.Inst.1Hour.0.Ccp-Rev
POTE.Flow.Inst.1Hour.0.Ccp-Rev
POTE.Volt-Battery.Inst.1Hour.0.Ccp-Rev
POTE.Volt-Battery Load.Inst.1Hour.0.Ccp-Rev

                            

All information presented herein is the property of the government of the United States of America and may be revised or deleted at any time without prior notice. Dissemination of this information without the expressed written consent of the Public Affairs Office, Tulsa District U.S. Army Corps of Engineers is strictly prohibited. These data are gathered electronically and, as presented, have NOT undergone any form of quality control. These data are NOT guaranteed to be valid or correct.